Time;durP1;ratioP1;P1;durP2;ratioP2;P2;SDS_P1;SDS_P2;PMS_P1;PMS_P2;Temp;Humidity;BMP_temperature;BMP_pressure;BME280_temperature;BME280_humidity;BME280_pressure;Samples;Min_cycle;Max_cycle;Signal;HPM_P1;HPM_P2
2021/08/30 00:01:23;;;;;;;20.52;6.80;;;;;;;23.47;48.41;99433.62;1769575;81;21351;-76
2021/08/30 00:04:28;;;;;;;15.25;7.12;;;;;;;23.48;48.38;99438.67;1771102;81;21182;-76
2021/08/30 00:07:34;;;;;;;21.60;8.03;;;;;;;23.47;48.29;99436.98;1771241;81;21284;-76
2021/08/30 00:10:41;;;;;;;16.07;6.85;;;;;;;23.45;48.22;99426.67;1771237;81;21351;-76
2021/08/30 00:13:47;;;;;;;16.35;7.17;;;;;;;23.44;48.16;99430.59;1769689;80;22049;-76
2021/08/30 00:16:54;;;;;;;22.35;7.62;;;;;;;23.42;48.09;99437.83;1769829;80;22516;-76
2021/08/30 00:19:59;;;;;;;17.95;6.08;;;;;;;23.42;48.11;99438.39;1771075;81;21320;-76
2021/08/30 00:23:05;;;;;;;12.53;6.70;;;;;;;23.37;48.16;99432.25;1769700;81;21244;-76
2021/08/30 00:26:11;;;;;;;16.80;6.53;;;;;;;23.34;48.01;99430.61;1783527;79;21315;-76
2021/08/30 00:29:18;;;;;;;16.40;7.05;;;;;;;23.32;48.04;99430.04;1746561;82;21698;-76
2021/08/30 00:32:25;;;;;;;16.30;6.95;;;;;;;23.29;48.13;99428.67;1746186;82;21564;-76
2021/08/30 00:35:31;;;;;;;12.23;6.55;;;;;;;23.26;48.15;99421.41;1746353;82;21366;-76
2021/08/30 00:38:38;;;;;;;13.53;6.53;;;;;;;23.21;48.15;99432.84;1747399;82;21282;-76
2021/08/30 00:41:44;;;;;;;10.50;5.95;;;;;;;23.18;48.23;99433.40;1747519;82;21311;-76
2021/08/30 00:44:50;;;;;;;16.20;6.90;;;;;;;23.16;48.24;99430.06;1747595;82;21302;-76
2021/08/30 00:47:55;;;;;;;18.75;6.97;;;;;;;23.15;48.33;99431.75;1747722;82;21180;-76
2021/08/30 00:51:02;;;;;;;16.90;6.92;;;;;;;23.10;48.33;99433.98;1747828;82;21180;-76
2021/08/30 00:54:08;;;;;;;14.75;6.28;;;;;;;23.06;48.31;99432.87;1748082;82;21224;-76
2021/08/30 00:57:14;;;;;;;17.87;7.08;;;;;;;23.04;48.22;99430.06;1746261;82;21302;-76
2021/08/30 01:00:19;;;;;;;20.60;6.97;;;;;;;23.02;48.06;99435.10;1747719;82;21314;-76
2021/08/30 01:03:24;;;;;;;21.87;6.62;;;;;;;23.01;48.00;99432.01;1746577;82;21503;-76
2021/08/30 01:06:43;;;;;;;12.47;6.20;;;;;;;23.01;47.99;99436.19;1747660;82;21227;-76
2021/08/30 01:10:02;;;;;;;20.10;6.92;;;;;;;22.99;47.84;99436.48;1729888;83;21844;-76
2021/08/30 01:13:12;;;;;;;17.20;6.85;;;;;;;22.95;47.86;99433.41;1718882;83;21827;-76
2021/08/30 01:16:20;;;;;;;17.67;6.15;;;;;;;22.93;47.82;99434.26;1718832;83;21164;-76
2021/08/30 01:19:34;;;;;;;11.60;6.12;;;;;;;22.92;47.81;99440.12;1719009;83;21160;-76
2021/08/30 01:22:40;;;;;;;13.68;6.25;;;;;;;22.89;47.86;99437.31;1718936;83;21168;-76
2021/08/30 01:25:45;;;;;;;18.60;6.12;;;;;;;22.88;47.82;99437.02;1713832;83;21894;-76
2021/08/30 01:29:20;;;;;;;16.10;6.20;;;;;;;22.86;47.71;99442.02;1771212;81;21292;-76
2021/08/30 01:32:57;;;;;;;16.32;5.47;;;;;;;22.85;47.68;99442.30;1751298;80;21177;-76
2021/08/30 01:36:03;;;;;;;12.18;5.80;;;;;;;22.84;47.55;99435.89;1771112;81;21186;-76
2021/08/30 01:39:09;;;;;;;17.65;5.97;;;;;;;22.82;47.60;99437.27;1770978;81;21343;-76
2021/08/30 01:42:15;;;;;;;19.02;6.65;;;;;;;22.80;47.60;99443.14;1771210;81;21296;-76
2021/08/30 01:45:22;;;;;;;20.62;5.90;;;;;;;22.79;47.64;99439.24;1771138;81;21330;-76
2021/08/30 01:48:28;;;;;;;15.13;5.70;;;;;;;22.77;47.72;99440.06;1771520;81;21292;-76
2021/08/30 01:51:34;;;;;;;15.53;6.22;;;;;;;22.75;47.66;99439.52;1733151;82;21831;-76
2021/08/30 01:54:40;;;;;;;13.80;6.42;;;;;;;22.73;47.72;99434.78;1771009;81;21291;-76
2021/08/30 02:00:54;;;;;;;12.90;5.60;;;;;;;22.66;47.69;99423.33;1743314;80;21304;-76
2021/08/30 02:03:59;;;;;;;12.37;6.03;;;;;;;22.64;47.63;99430.31;1771330;81;21197;-76
2021/08/30 02:07:06;;;;;;;18.27;6.28;;;;;;;22.61;47.69;99430.30;1769817;81;21197;-76
2021/08/30 02:10:11;;;;;;;11.28;5.40;;;;;;;22.59;47.55;99426.96;1770512;81;21268;-76
2021/08/30 02:13:17;;;;;;;11.80;5.60;;;;;;;22.58;47.55;99433.62;1770919;81;21307;-76
2021/08/30 02:16:22;;;;;;;12.60;5.92;;;;;;;22.57;47.62;99433.91;1771125;81;21768;-76
2021/08/30 02:19:54;;;;;;;14.95;6.17;;;;;;;22.54;47.64;99434.48;1771152;81;21349;-76
2021/08/30 02:23:00;;;;;;;9.48;5.08;;;;;;;22.52;47.73;99432.52;1771266;81;21297;-76
2021/08/30 02:26:10;;;;;;;12.07;6.08;;;;;;;22.49;47.66;99436.70;1769666;79;21197;-76
2021/08/30 02:29:15;;;;;;;17.52;6.25;;;;;;;22.48;47.67;99438.35;1771542;81;21241;-76
2021/08/30 02:32:20;;;;;;;14.28;6.15;;;;;;;22.46;47.66;99441.42;1769865;81;22109;-76
2021/08/30 02:35:31;;;;;;;14.68;5.35;;;;;;;22.44;47.59;99438.92;1771064;81;21292;-76
2021/08/30 02:38:37;;;;;;;12.03;5.90;;;;;;;22.44;47.48;99445.02;1735266;82;21264;-76
2021/08/30 02:41:42;;;;;;;12.18;5.72;;;;;;;22.45;47.33;99440.59;1771670;81;21364;-76
2021/08/30 02:44:48;;;;;;;23.00;6.85;;;;;;;22.45;47.32;99445.33;1770040;81;21319;-76
2021/08/30 02:47:53;;;;;;;21.10;5.45;;;;;;;22.43;47.30;99441.96;1771406;81;21297;-76
2021/08/30 02:50:58;;;;;;;12.33;5.70;;;;;;;22.40;47.30;99445.32;1763032;81;22530;-76
2021/08/30 02:54:05;;;;;;;12.13;5.28;;;;;;;22.37;47.41;99452.83;1770900;81;21359;-77
2021/08/30 02:57:12;;;;;;;14.87;5.42;;;;;;;22.34;47.36;99447.79;1769882;81;22203;-76
2021/08/30 03:00:18;;;;;;;9.63;5.90;;;;;;;22.29;47.36;99446.39;1770944;81;21895;-76
2021/08/30 03:03:22;;;;;;;18.20;5.62;;;;;;;22.28;47.31;99447.50;1771671;81;21221;-77
2021/08/30 03:06:28;;;;;;;7.67;4.95;;;;;;;22.26;47.39;99456.14;1771915;81;21857;-77
2021/08/30 03:09:33;;;;;;;16.85;5.58;;;;;;;22.23;47.42;99455.28;1772067;81;21131;-77
2021/08/30 03:12:41;;;;;;;16.82;5.87;;;;;;;22.20;47.54;99455.27;1771771;81;21328;-77
2021/08/30 03:15:47;;;;;;;13.15;5.87;;;;;;;22.19;47.58;99461.12;1771157;81;21303;-77
2021/08/30 03:18:49;;;;;;;12.20;5.75;;;;;;;22.15;47.72;99466.39;1771651;81;21169;-77
2021/08/30 03:21:54;;;;;;;27.27;6.28;;;;;;;22.13;47.87;99466.40;1771097;81;21295;-76
2021/08/30 03:25:01;;;;;;;18.90;6.08;;;;;;;22.11;47.89;99464.39;1741175;81;21291;-77
2021/08/30 03:28:05;;;;;;;12.82;5.53;;;;;;;22.11;47.89;99472.74;1752012;81;21878;-76
2021/08/30 03:31:11;;;;;;;13.13;5.55;;;;;;;22.12;47.82;99471.13;1752723;81;21796;-76
2021/08/30 03:34:16;;;;;;;13.78;5.62;;;;;;;22.15;47.70;99471.95;1754775;81;21737;-76
2021/08/30 03:37:23;;;;;;;15.28;6.10;;;;;;;22.16;47.62;99480.63;1754322;81;21319;-76
2021/08/30 03:40:29;;;;;;;12.70;5.62;;;;;;;22.19;47.75;99480.61;1751750;81;21799;-77
2021/08/30 03:43:35;;;;;;;10.93;5.17;;;;;;;22.22;47.62;99483.42;1749963;81;21158;-76
2021/08/30 03:46:40;;;;;;;19.25;5.67;;;;;;;22.22;47.62;99481.47;1755205;81;21348;-77
2021/08/30 03:49:45;;;;;;;13.40;5.80;;;;;;;22.23;47.65;99476.18;1750774;81;21284;-77
2021/08/30 03:52:51;;;;;;;9.68;5.15;;;;;;;22.27;47.60;99479.27;1716655;82;21284;-76
2021/08/30 03:55:58;;;;;;;16.55;5.83;;;;;;;22.30;47.41;99478.70;1754313;80;21161;-77
2021/08/30 03:59:05;;;;;;;16.00;6.12;;;;;;;22.35;47.51;99486.54;1755693;81;21750;-77
2021/08/30 04:02:11;;;;;;;17.85;6.87;;;;;;;22.37;47.43;99491.83;1715281;82;21809;-77
2021/08/30 04:05:19;;;;;;;17.70;6.08;;;;;;;22.42;47.36;99492.67;1748914;81;21298;-77
2021/08/30 04:08:24;;;;;;;12.20;6.20;;;;;;;22.46;47.40;99488.79;1751622;81;21811;-76
2021/08/30 04:11:32;;;;;;;20.88;6.90;;;;;;;22.50;47.23;99490.48;1752992;81;21223;-76
2021/08/30 04:14:36;;;;;;;10.35;6.50;;;;;;;22.57;47.20;99497.45;1755435;81;21800;-77
2021/08/30 04:17:42;;;;;;;16.77;6.03;;;;;;;22.65;47.03;99497.48;1765062;81;21827;-77
2021/08/30 04:20:50;;;;;;;18.67;6.70;;;;;;;22.71;47.00;99499.98;1753977;81;21177;-76
2021/08/30 04:23:56;;;;;;;13.62;6.75;;;;;;;22.78;46.76;99501.69;1754653;81;21692;-77
2021/08/30 04:27:03;;;;;;;21.70;6.67;;;;;;;22.90;46.57;99499.49;1749252;81;21208;-77
2021/08/30 04:30:09;;;;;;;17.52;5.75;;;;;;;23.01;46.43;99502.59;1744972;80;21897;-77
2021/08/30 04:33:14;;;;;;;14.33;6.22;;;;;;;23.09;46.37;99501.18;1748230;82;21244;-77
2021/08/30 04:36:20;;;;;;;15.30;5.70;;;;;;;23.19;45.81;99507.59;1747311;82;21314;-77
2021/08/30 04:39:25;;;;;;;10.15;4.90;;;;;;;23.31;45.51;99505.09;1759804;80;21145;-77
2021/08/30 04:42:32;;;;;;;13.72;5.67;;;;;;;23.42;45.20;99508.15;1784176;80;21255;-77
2021/08/30 04:45:38;;;;;;;18.65;4.97;;;;;;;23.55;44.87;99502.56;1729419;82;21850;-77
2021/08/30 04:48:42;;;;;;;11.80;5.12;;;;;;;23.66;44.28;99505.08;1711582;82;21748;-77
2021/08/30 04:51:48;;;;;;;14.05;4.95;;;;;;;23.76;44.46;99500.59;1748007;82;21330;-77
2021/08/30 04:54:55;;;;;;;12.30;5.00;;;;;;;23.89;44.43;99512.56;1745819;82;21723;-77
2021/08/30 04:58:02;;;;;;;16.75;5.28;;;;;;;23.99;43.67;99506.95;1747128;82;21235;-77
2021/08/30 05:01:07;;;;;;;13.40;5.20;;;;;;;24.08;43.81;99501.05;1701420;83;21196;-77
2021/08/30 05:04:13;;;;;;;12.47;5.17;;;;;;;24.16;43.78;99506.63;1732176;82;21834;-77
2021/08/30 05:07:20;;;;;;;15.38;4.85;;;;;;;24.21;43.63;99503.80;1728820;82;21310;-76
2021/08/30 05:10:25;;;;;;;23.70;5.50;;;;;;;24.31;43.42;99500.13;1715311;82;21188;-77
2021/08/30 05:13:32;;;;;;;19.10;6.30;;;;;;;24.40;43.30;99500.67;1744237;82;21162;-77
2021/08/30 05:16:38;;;;;;;22.45;5.90;;;;;;;24.48;42.97;99500.08;1741477;80;21274;-77
2021/08/30 05:19:44;;;;;;;9.95;4.87;;;;;;;24.54;43.23;99498.09;1713673;83;21197;-77
2021/08/30 05:22:53;;;;;;;13.85;4.90;;;;;;;24.64;42.95;99494.39;1721518;83;21602;-76
2021/08/30 05:25:58;;;;;;;14.00;4.95;;;;;;;24.69;42.92;99500.78;1718235;83;21336;-76
2021/08/30 05:29:04;;;;;;;16.17;5.58;;;;;;;24.74;43.23;99503.55;1718215;83;21209;-76
2021/08/30 05:32:10;;;;;;;15.65;5.37;;;;;;;24.85;43.03;99488.95;1675545;85;21323;-77
2021/08/30 05:35:16;;;;;;;14.20;5.08;;;;;;;24.97;43.10;99485.78;1681686;84;21251;-77
2021/08/30 05:38:22;;;;;;;16.23;5.72;;;;;;;25.07;43.22;99482.06;1675987;84;21202;-77
2021/08/30 05:41:32;;;;;;;22.70;6.47;;;;;;;25.19;43.10;99489.56;1683571;84;21825;-77
2021/08/30 05:44:37;;;;;;;19.02;5.17;;;;;;;25.35;42.87;99497.25;1678127;84;21295;-77
2021/08/30 05:47:47;;;;;;;12.85;5.08;;;;;;;25.47;43.00;99492.11;1682883;84;21199;-76
2021/08/30 05:50:53;;;;;;;11.25;6.08;;;;;;;25.61;42.92;99483.30;1685405;83;21901;-76
2021/08/30 05:54:00;;;;;;;20.43;5.72;;;;;;;25.74;42.61;99488.20;1679762;83;21334;-77
2021/08/30 05:57:05;;;;;;;13.38;5.80;;;;;;;25.85;42.12;99493.72;1678117;84;21777;-76
2021/08/30 06:00:11;;;;;;;17.32;5.78;;;;;;;25.93;41.99;99500.08;1681350;84;21348;-77
2021/08/30 06:03:16;;;;;;;11.12;5.15;;;;;;;26.00;41.58;99478.96;1683161;84;21109;-76
2021/08/30 06:06:22;;;;;;;18.20;5.72;;;;;;;26.07;41.53;99494.03;1682644;83;21346;-77
2021/08/30 06:09:29;;;;;;;16.25;6.30;;;;;;;26.12;41.37;99499.57;1684163;84;21200;-78
2021/08/30 06:12:35;;;;;;;22.98;5.37;;;;;;;26.17;41.48;99492.50;1676278;83;21550;-77
2021/08/30 06:15:41;;;;;;;17.48;5.92;;;;;;;26.29;41.79;99498.23;1674978;85;21334;-77
2021/08/30 06:18:49;;;;;;;17.75;6.08;;;;;;;26.44;41.25;99489.11;1672514;84;21307;-77
2021/08/30 06:21:55;;;;;;;19.77;6.37;;;;;;;26.57;40.93;99500.70;1669072;84;21208;-77
2021/08/30 06:25:00;;;;;;;17.42;5.75;;;;;;;26.58;40.92;99502.36;1677239;85;21331;-77
2021/08/30 06:28:07;;;;;;;25.27;6.47;;;;;;;26.63;41.49;99506.49;1680801;84;21360;-77
2021/08/30 06:31:13;;;;;;;22.98;7.62;;;;;;;26.70;41.09;99497.98;1694770;82;21328;-76
2021/08/30 06:34:18;;;;;;;14.07;5.92;;;;;;;26.81;41.37;99504.84;1719015;82;21367;-77
2021/08/30 06:37:25;;;;;;;14.87;6.08;;;;;;;26.93;40.92;99498.21;1719105;83;21822;-77
2021/08/30 06:40:30;;;;;;;21.17;6.65;;;;;;;27.05;40.24;99502.77;1716791;82;21311;-78
2021/08/30 06:43:39;;;;;;;20.88;6.58;;;;;;;27.10;40.61;99499.95;1762014;81;21283;-77
2021/08/30 06:46:41;;;;;;;19.05;6.05;;;;;;;27.17;39.92;99488.31;1723311;82;21318;-76
2021/08/30 06:49:48;;;;;;;25.72;6.65;;;;;;;27.26;40.07;99506.96;1724404;82;21283;-75
2021/08/30 06:52:53;;;;;;;26.15;5.90;;;;;;;27.35;40.30;99489.42;1722466;81;21359;-76
2021/08/30 06:55:59;;;;;;;31.07;6.97;;;;;;;27.45;40.28;99488.67;1761143;81;21350;-77
2021/08/30 06:59:04;;;;;;;20.27;6.28;;;;;;;27.61;39.99;99497.64;1761226;81;21889;-77
2021/08/30 07:02:10;;;;;;;21.25;6.72;;;;;;;27.70;39.40;99478.94;1760563;81;21339;-76
2021/08/30 07:05:19;;;;;;;28.52;8.15;;;;;;;27.72;39.10;99483.72;1765495;81;21296;-78
2021/08/30 07:08:25;;;;;;;;;;;;;;;27.79;39.54;99486.11;1768032;81;21299;-77
2021/08/30 07:11:30;;;;;;;18.25;6.70;;;;;;;27.96;39.08;99495.34;1761963;81;20321;-77
2021/08/30 07:14:37;;;;;;;18.02;6.75;;;;;;;28.08;38.68;99491.43;1766921;81;21732;-76
2021/08/30 07:17:43;;;;;;;24.80;6.85;;;;;;;28.15;38.37;99486.81;1765827;81;21279;-77
2021/08/30 07:20:51;;;;;;;18.98;7.87;;;;;;;28.22;38.75;99487.21;1764956;81;21318;-77
2021/08/30 07:24:01;;;;;;;22.30;7.87;;;;;;;28.37;38.36;99495.92;1764375;81;21189;-76
2021/08/30 07:27:07;;;;;;;26.97;7.62;;;;;;;28.49;38.58;99493.42;1726529;82;21358;-77
2021/08/30 07:30:13;;;;;;;22.95;7.12;;;;;;;28.62;37.83;99491.16;1765747;81;21335;-77
2021/08/30 07:33:18;;;;;;;25.72;7.62;;;;;;;28.71;37.93;99481.41;1763321;79;21220;-77
2021/08/30 07:36:25;;;;;;;25.35;7.80;;;;;;;28.91;37.51;99480.91;1756652;81;21750;-77
2021/08/30 07:39:30;;;;;;;24.00;7.30;;;;;;;28.91;37.51;99480.91;1759573;79;21271;-77
2021/08/30 07:42:38;;;;;;;30.62;7.85;;;;;;;28.96;37.60;99488.44;1759957;79;21245;-79
2021/08/30 07:45:44;;;;;;;23.42;6.53;;;;;;;29.06;37.52;99495.80;1753597;81;21323;-76
2021/08/30 07:48:49;;;;;;;21.57;6.87;;;;;;;29.19;37.63;99492.93;1758687;79;21307;-77
2021/08/30 07:51:55;;;;;;;22.95;6.70;;;;;;;29.34;36.63;99485.25;1761822;81;21543;-77
2021/08/30 07:55:02;;;;;;;22.62;7.00;;;;;;;29.41;36.72;99489.87;1761304;80;21193;-77
2021/08/30 07:58:07;;;;;;;26.10;6.47;;;;;;;29.42;35.77;99488.13;1726230;82;21930;-76
2021/08/30 08:01:14;;;;;;;23.30;6.97;;;;;;;29.46;36.22;99482.11;1762988;81;21287;-76
2021/08/30 08:04:20;;;;;;;25.02;6.00;;;;;;;29.63;36.05;99495.48;1762612;79;21244;-76
2021/08/30 08:07:25;;;;;;;20.12;6.35;;;;;;;29.74;35.36;99479.98;1754960;81;21659;-77
2021/08/30 08:10:31;;;;;;;23.55;6.55;;;;;;;29.94;35.03;99491.84;1765729;81;21311;-77
2021/08/30 08:13:37;;;;;;;24.95;6.40;;;;;;;29.94;35.03;99491.84;1766703;81;21891;-78
2021/08/30 08:16:43;;;;;;;22.25;6.53;;;;;;;30.04;34.23;99482.51;1749091;79;21666;-77
2021/08/30 08:19:49;;;;;;;33.33;6.75;;;;;;;30.09;34.12;99477.30;1762473;81;21883;-76
2021/08/30 08:22:55;;;;;;;19.23;5.97;;;;;;;30.14;34.34;99472.12;1756542;81;22614;-77
2021/08/30 08:26:01;;;;;;;17.92;5.80;;;;;;;30.39;34.16;99464.30;1764370;81;21341;-76
2021/08/30 08:29:07;;;;;;;26.02;6.03;;;;;;;30.39;34.16;99464.30;1762398;79;21283;-76
2021/08/30 08:32:13;;;;;;;22.25;6.20;;;;;;;30.61;33.35;99455.47;1760654;79;21177;-76
2021/08/30 08:35:18;;;;;;;17.42;5.80;;;;;;;30.61;33.35;99455.47;1760719;80;21240;-77
2021/08/30 08:38:23;;;;;;;16.30;6.00;;;;;;;30.73;33.45;99469.22;1763858;81;21902;-77
2021/08/30 08:41:28;;;;;;;17.32;5.90;;;;;;;30.87;33.24;99464.01;1723124;81;21643;-77
2021/08/30 08:44:34;;;;;;;20.27;6.47;;;;;;;30.94;32.71;99451.03;1762643;81;21516;-76
2021/08/30 08:47:39;;;;;;;15.60;5.58;;;;;;;30.98;32.38;99452.03;1760554;81;21578;-76
2021/08/30 08:50:44;;;;;;;14.15;5.95;;;;;;;31.05;32.46;99452.93;1719099;81;21306;-76
2021/08/30 08:53:50;;;;;;;18.92;6.40;;;;;;;31.18;31.95;99450.52;1759106;81;21692;-77
2021/08/30 08:56:56;;;;;;;16.80;6.25;;;;;;;31.25;31.38;99445.20;1764032;81;21288;-77
2021/08/30 09:00:10;;;;;;;19.52;5.75;;;;;;;31.32;31.92;99434.00;1761620;79;21328;-76
2021/08/30 09:03:26;;;;;;;21.73;5.80;;;;;;;31.40;31.24;99443.05;1759233;79;21583;-76
2021/08/30 09:06:43;;;;;;;20.75;5.55;;;;;;;31.40;30.83;99442.45;1760539;81;21193;-77
2021/08/30 09:09:49;;;;;;;15.23;6.15;;;;;;;31.41;31.43;99437.63;1757291;81;21313;-77
2021/08/30 09:12:55;;;;;;;18.37;5.55;;;;;;;31.56;30.90;99435.67;1754748;81;21299;-77
2021/08/30 09:16:02;;;;;;;12.63;5.65;;;;;;;31.72;31.05;99431.14;1762215;81;21208;-76
2021/08/30 09:19:12;;;;;;;15.68;6.03;;;;;;;31.79;30.35;99440.50;1764095;81;21616;-76
2021/08/30 09:22:17;;;;;;;12.23;5.40;;;;;;;31.80;30.15;99435.08;1763773;80;21338;-76
2021/08/30 09:25:23;;;;;;;11.22;4.65;;;;;;;31.84;29.95;99431.86;1758482;80;21307;-77
2021/08/30 09:28:40;;;;;;;15.45;5.62;;;;;;;31.85;29.62;99434.92;1726715;82;22131;-75
2021/08/30 09:31:44;;;;;;;24.05;5.92;;;;;;;31.95;28.87;99428.09;1761496;79;21303;-76
2021/08/30 09:34:57;;;;;;;16.12;5.28;;;;;;;32.08;28.31;99437.48;1757768;80;21812;-76
2021/08/30 09:38:02;;;;;;;14.75;5.22;;;;;;;32.08;28.28;99434.07;1754080;81;21605;-76
2021/08/30 09:41:14;;;;;;;18.25;5.03;;;;;;;32.04;28.46;99419.80;1722040;82;21914;-76
2021/08/30 09:44:21;;;;;;;19.55;5.12;;;;;;;31.98;28.85;99425.38;1718544;82;21443;-76
2021/08/30 09:47:28;;;;;;;21.48;5.05;;;;;;;32.00;29.19;99415.17;1745330;81;21341;-77
2021/08/30 09:50:43;;;;;;;17.25;5.83;;;;;;;32.13;28.40;99427.39;1755822;81;21311;-76
2021/08/30 09:53:49;;;;;;;16.73;6.40;;;;;;;32.29;27.98;99415.16;1762734;81;21308;-77
2021/08/30 09:56:56;;;;;;;18.62;4.80;;;;;;;32.39;27.98;99413.95;1717868;81;21290;-77
2021/08/30 10:00:03;;;;;;;19.32;5.30;;;;;;;32.45;28.00;99416.81;1765934;79;21240;-76
2021/08/30 10:03:08;;;;;;;19.52;5.87;;;;;;;32.53;28.07;99417.94;1764267;81;21907;-76
2021/08/30 10:06:16;;;;;;;15.43;5.53;;;;;;;32.61;27.25;99422.71;1761751;81;21340;-76
2021/08/30 10:09:22;;;;;;;16.60;5.17;;;;;;;32.55;26.92;99418.41;1756850;81;21150;-76
2021/08/30 10:12:28;;;;;;;13.48;4.85;;;;;;;32.54;26.77;99419.59;1757069;81;21657;-77
2021/08/30 10:15:34;;;;;;;18.10;5.03;;;;;;;32.56;27.07;99421.50;1752686;81;21160;-76
2021/08/30 10:18:41;;;;;;;16.85;5.47;;;;;;;32.56;26.96;99415.84;1758405;80;21184;-77
2021/08/30 10:21:53;;;;;;;15.93;6.05;;;;;;;32.52;26.96;99413.45;1758693;81;21165;-77
2021/08/30 10:24:58;;;;;;;11.80;4.50;;;;;;;32.56;27.22;99417.26;1754283;79;21188;-77
2021/08/30 10:28:08;;;;;;;16.82;4.55;;;;;;;32.67;26.33;99406.34;1758053;81;21295;-76
2021/08/30 10:31:26;;;;;;;;;;;;;;;32.70;26.24;99409.31;1760693;81;21898;-76
2021/08/30 10:34:36;;;;;;;20.12;5.40;;;;;;;32.77;26.71;99413.00;1761061;81;20428;-77
2021/08/30 10:37:41;;;;;;;11.25;5.33;;;;;;;32.78;26.36;99402.73;1743976;82;21612;-77
2021/08/30 10:40:46;;;;;;;12.40;4.37;;;;;;;32.83;25.78;99401.09;1720110;82;21906;-77
2021/08/30 10:43:52;;;;;;;20.85;5.08;;;;;;;32.92;25.46;99401.65;1717888;82;21565;-77
2021/08/30 10:47:01;;;;;;;15.50;4.80;;;;;;;32.99;25.51;99407.00;1721707;81;21308;-77
2021/08/30 10:50:06;;;;;;;15.67;4.33;;;;;;;32.92;25.20;99415.22;1724400;81;21346;-77
2021/08/30 10:53:17;;;;;;;20.92;3.92;;;;;;;32.88;25.15;99400.06;1732395;82;21197;-76
2021/08/30 10:56:26;;;;;;;6.78;3.65;;;;;;;32.95;24.24;99412.30;1733098;81;21280;-76
2021/08/30 10:59:34;;;;;;;14.83;4.83;;;;;;;32.95;23.94;99385.39;1731194;82;21283;-77
2021/08/30 11:02:55;;;;;;;9.38;3.52;;;;;;;32.92;24.29;99400.23;1726994;82;23030;-76
2021/08/30 11:06:18;;;;;;;10.03;3.83;;;;;;;32.97;24.25;99398.59;1728481;81;21310;-76
2021/08/30 11:09:26;;;;;;;10.32;4.00;;;;;;;32.96;23.62;99392.70;1727865;82;21633;-76
2021/08/30 11:12:33;;;;;;;12.18;3.65;;;;;;;32.93;24.02;99391.97;1729724;81;21264;-76
2021/08/30 11:15:39;;;;;;;11.40;3.30;;;;;;;32.97;23.63;99392.94;1729088;82;21581;-76
2021/08/30 11:18:46;;;;;;;9.35;3.67;;;;;;;33.00;23.66;99388.83;1732558;82;21233;-76
2021/08/30 11:22:01;;;;;;;14.35;3.22;;;;;;;33.11;23.05;99387.80;1702875;81;21353;-78
2021/08/30 11:25:09;;;;;;;10.10;3.25;;;;;;;33.13;23.26;99381.80;1727827;81;21343;-76
2021/08/30 11:28:25;;;;;;;9.08;3.02;;;;;;;33.09;22.99;99378.00;1745562;82;21850;-76
2021/08/30 11:31:32;;;;;;;9.80;3.02;;;;;;;33.13;23.37;99385.45;1727405;82;21161;-76
2021/08/30 11:34:40;;;;;;;9.20;3.12;;;;;;;33.15;22.54;99384.50;1726742;82;21330;-76
2021/08/30 11:37:47;;;;;;;12.23;3.77;;;;;;;33.10;22.13;99381.89;1726845;82;21237;-76
2021/08/30 11:40:52;;;;;;;10.13;3.05;;;;;;;33.04;22.44;99398.87;1728733;83;21347;-76
2021/08/30 11:44:10;;;;;;;13.53;3.00;;;;;;;32.97;22.44;99387.27;1724422;83;21760;-76
2021/08/30 11:47:20;;;;;;;8.20;3.10;;;;;;;32.89;22.33;99385.31;1730359;83;21248;-76
2021/08/30 11:50:27;;;;;;;12.03;3.77;;;;;;;32.85;23.00;99380.12;1706265;84;21779;-76
2021/08/30 11:53:32;;;;;;;7.90;2.90;;;;;;;32.86;22.84;99377.53;1716978;82;21815;-76
2021/08/30 11:56:44;;;;;;;8.78;3.08;;;;;;;32.88;22.90;99361.00;1721488;83;21872;-76
2021/08/30 11:59:55;;;;;;;9.40;3.35;;;;;;;32.94;23.01;99367.57;1732429;81;21660;-76
2021/08/30 12:03:07;;;;;;;10.13;3.22;;;;;;;33.04;22.82;99374.21;1730526;83;21268;-76
2021/08/30 12:06:13;;;;;;;;;;;;;;;33.11;23.03;99382.13;1731697;83;21193;-76
2021/08/30 12:09:19;;;;;;;8.33;3.25;;;;;;;33.02;23.18;99359.55;1718147;82;20295;-76
2021/08/30 12:12:35;;;;;;;14.58;3.25;;;;;;;32.96;22.67;99362.97;1725077;83;21736;-76
2021/08/30 12:15:42;;;;;;;8.28;3.08;;;;;;;32.93;22.66;99360.82;1727469;83;21213;-76
2021/08/30 12:18:56;;;;;;;7.05;3.10;;;;;;;32.87;22.99;99360.77;1729779;83;21253;-76
2021/08/30 12:22:05;;;;;;;7.45;3.30;;;;;;;32.86;23.21;99357.70;1728401;83;21190;-76
2021/08/30 12:25:17;;;;;;;11.25;3.35;;;;;;;32.90;23.02;99364.34;1731213;83;21288;-76
2021/08/30 12:28:25;;;;;;;12.20;3.45;;;;;;;32.89;22.98;99355.58;1713480;83;21347;-76
2021/08/30 12:31:35;;;;;;;6.10;3.20;;;;;;;32.89;23.13;99359.27;1709979;83;21177;-76
2021/08/30 12:34:42;;;;;;;8.83;3.00;;;;;;;32.96;22.94;99356.70;1727988;83;21786;-76
2021/08/30 12:37:47;;;;;;;8.53;3.75;;;;;;;32.98;23.02;99355.79;1694913;83;21799;-76
2021/08/30 12:40:58;;;;;;;10.90;3.40;;;;;;;32.96;23.02;99362.38;1725532;82;21157;-76
2021/08/30 12:44:04;;;;;;;5.10;3.50;;;;;;;32.94;22.72;99344.09;1730008;82;21743;-76
2021/08/30 12:47:08;;;;;;;13.08;4.03;;;;;;;32.89;22.56;99345.66;1714460;83;21315;-76
2021/08/30 12:50:15;;;;;;;11.22;3.40;;;;;;;32.82;22.88;99351.91;1690795;84;21207;-76
2021/08/30 12:53:22;;;;;;;12.55;3.87;;;;;;;32.78;23.33;99343.86;1707691;83;21793;-76
2021/08/30 12:56:29;;;;;;;9.38;4.53;;;;;;;32.76;23.04;99341.39;1708182;83;21341;-76
2021/08/30 12:59:36;;;;;;;8.37;3.77;;;;;;;32.75;23.29;99329.83;1717864;83;21308;-77
2021/08/30 13:02:42;;;;;;;11.45;3.95;;;;;;;32.77;22.89;99334.55;1727194;82;21185;-76
2021/08/30 13:05:47;;;;;;;12.13;3.58;;;;;;;32.74;23.51;99325.32;1730649;81;21371;-76
2021/08/30 13:08:53;;;;;;;12.55;4.15;;;;;;;32.76;22.47;99317.33;1732426;82;21296;-76
2021/08/30 13:11:58;;;;;;;9.53;3.70;;;;;;;32.75;22.37;99299.28;1735947;82;21315;-76
2021/08/30 13:15:03;;;;;;;12.90;3.90;;;;;;;32.71;22.24;99312.47;1737626;82;21347;-76
2021/08/30 13:18:09;;;;;;;12.78;4.45;;;;;;;32.67;22.71;99307.27;1717114;83;21835;-76
2021/08/30 13:21:14;;;;;;;13.05;4.20;;;;;;;32.64;22.59;99310.19;1705798;84;21311;-76
2021/08/30 13:24:19;;;;;;;12.13;4.33;;;;;;;32.62;22.87;99298.40;1701338;84;21804;-76
2021/08/30 13:27:24;;;;;;;13.90;3.47;;;;;;;32.60;23.09;99304.16;1726899;83;21324;-76
2021/08/30 13:30:32;;;;;;;5.50;3.12;;;;;;;32.61;23.21;99309.48;1710333;84;21349;-76
2021/08/30 13:33:37;;;;;;;12.70;3.67;;;;;;;32.61;23.12;99319.95;1739127;82;21330;-76
2021/08/30 13:36:43;;;;;;;13.25;3.62;;;;;;;32.58;23.07;99307.93;1723611;83;21538;-76
2021/08/30 13:39:49;;;;;;;8.38;4.05;;;;;;;32.55;23.45;99308.02;1694546;84;21332;-76
2021/08/30 13:42:54;;;;;;;10.13;3.47;;;;;;;32.56;23.34;99304.87;1697049;84;21314;-76
2021/08/30 13:46:00;;;;;;;12.75;4.08;;;;;;;32.58;23.25;99306.52;1705068;83;21233;-76
2021/08/30 13:49:07;;;;;;;9.18;3.50;;;;;;;32.58;23.26;99315.01;1725794;83;21264;-76
2021/08/30 13:52:14;;;;;;;9.45;3.85;;;;;;;32.55;23.32;99313.69;1727240;83;21342;-76
2021/08/30 13:55:22;;;;;;;15.58;3.72;;;;;;;32.51;23.52;99302.81;1727148;83;21201;-76
2021/08/30 13:58:27;;;;;;;10.90;3.60;;;;;;;32.44;23.37;99306.80;1731669;83;21158;-76
2021/08/30 14:01:35;;;;;;;11.55;4.00;;;;;;;32.39;23.84;99298.53;1732171;81;21236;-76
2021/08/30 14:04:41;;;;;;;12.98;4.25;;;;;;;32.40;24.13;99300.17;1733053;83;21305;-76
2021/08/30 14:07:47;;;;;;;13.72;4.03;;;;;;;32.41;24.41;99293.34;1732947;83;21340;-76
2021/08/30 14:10:53;;;;;;;8.83;3.67;;;;;;;32.42;24.56;99304.89;1734104;83;21768;-76
2021/08/30 14:13:59;;;;;;;8.10;3.87;;;;;;;32.38;24.00;99320.93;1704509;84;21343;-76
2021/08/30 14:17:06;;;;;;;9.28;4.10;;;;;;;32.34;24.40;99318.52;1703119;84;21201;-76
2021/08/30 14:20:14;;;;;;;10.90;4.40;;;;;;;32.29;24.98;99307.64;1719590;83;21173;-76
2021/08/30 14:23:19;;;;;;;15.68;4.37;;;;;;;32.25;25.14;99305.27;1723170;83;21852;-76
2021/08/30 14:26:26;;;;;;;12.75;3.83;;;;;;;32.24;25.14;99307.03;1733935;82;21296;-76
2021/08/30 14:29:32;;;;;;;7.80;3.72;;;;;;;32.17;25.29;99306.73;1734172;83;21300;-76
2021/08/30 14:32:38;;;;;;;19.00;4.20;;;;;;;32.11;25.46;99294.80;1723718;83;21302;-76
2021/08/30 14:35:44;;;;;;;16.60;3.92;;;;;;;32.08;25.82;99299.72;1726716;83;21333;-76